sensor_id;sensor_type;location;lat;lon;timestamp;P1;durP1;ratioP1;P2;durP2;ratioP2
23270;SDS011;11804;51.118;17.058;2023-04-15T00:00:49;23.30;;;16.73;;
23270;SDS011;11804;51.118;17.058;2023-04-15T00:03:17;20.03;;;16.07;;
23270;SDS011;11804;51.118;17.058;2023-04-15T00:05:44;23.97;;;16.43;;
23270;SDS011;11804;51.118;17.058;2023-04-15T00:08:12;21.37;;;17.27;;
23270;SDS011;11804;51.118;17.058;2023-04-15T00:10:40;20.07;;;16.37;;
23270;SDS011;11804;51.118;17.058;2023-04-15T00:13:09;20.23;;;15.17;;
23270;SDS011;11804;51.118;17.058;2023-04-15T00:15:36;18.37;;;15.10;;
23270;SDS011;11804;51.118;17.058;2023-04-15T00:18:04;18.63;;;15.23;;
23270;SDS011;11804;51.118;17.058;2023-04-15T00:20:33;17.50;;;15.27;;
23270;SDS011;11804;51.118;17.058;2023-04-15T00:23:01;21.00;;;15.63;;
23270;SDS011;11804;51.118;17.058;2023-04-15T00:25:30;19.43;;;15.70;;
23270;SDS011;11804;51.118;17.058;2023-04-15T00:27:58;16.80;;;14.30;;
23270;SDS011;11804;51.118;17.058;2023-04-15T00:30:25;18.47;;;15.20;;
23270;SDS011;11804;51.118;17.058;2023-04-15T00:32:53;17.70;;;15.17;;
23270;SDS011;11804;51.118;17.058;2023-04-15T00:35:20;19.17;;;14.60;;
23270;SDS011;11804;51.118;17.058;2023-04-15T00:37:49;17.17;;;14.00;;
23270;SDS011;11804;51.118;17.058;2023-04-15T00:40:17;16.67;;;14.47;;
23270;SDS011;11804;51.118;17.058;2023-04-15T00:42:48;16.00;;;13.73;;
23270;SDS011;11804;51.118;17.058;2023-04-15T00:45:16;18.37;;;14.07;;
23270;SDS011;11804;51.118;17.058;2023-04-15T00:47:44;17.60;;;14.70;;
23270;SDS011;11804;51.118;17.058;2023-04-15T00:50:12;17.73;;;13.67;;
23270;SDS011;11804;51.118;17.058;2023-04-15T00:52:40;21.87;;;14.17;;
23270;SDS011;11804;51.118;17.058;2023-04-15T00:55:08;21.37;;;14.83;;
23270;SDS011;11804;51.118;17.058;2023-04-15T00:57:36;17.03;;;14.00;;
23270;SDS011;11804;51.118;17.058;2023-04-15T01:00:06;17.97;;;14.10;;
23270;SDS011;11804;51.118;17.058;2023-04-15T01:02:36;19.03;;;14.53;;
23270;SDS011;11804;51.118;17.058;2023-04-15T01:05:04;17.97;;;14.13;;
23270;SDS011;11804;51.118;17.058;2023-04-15T01:07:32;18.87;;;14.27;;
23270;SDS011;11804;51.118;17.058;2023-04-15T01:10:00;19.10;;;14.53;;
23270;SDS011;11804;51.118;17.058;2023-04-15T01:12:30;21.07;;;15.10;;
23270;SDS011;11804;51.118;17.058;2023-04-15T01:14:59;19.00;;;14.90;;
23270;SDS011;11804;51.118;17.058;2023-04-15T01:17:27;18.77;;;14.67;;
23270;SDS011;11804;51.118;17.058;2023-04-15T01:19:55;17.70;;;13.83;;
23270;SDS011;11804;51.118;17.058;2023-04-15T01:22:23;19.33;;;15.13;;
23270;SDS011;11804;51.118;17.058;2023-04-15T01:24:56;17.70;;;15.23;;
23270;SDS011;11804;51.118;17.058;2023-04-15T01:27:26;17.37;;;14.63;;
23270;SDS011;11804;51.118;17.058;2023-04-15T01:29:55;16.83;;;14.27;;
23270;SDS011;11804;51.118;17.058;2023-04-15T01:32:23;19.33;;;14.03;;
23270;SDS011;11804;51.118;17.058;2023-04-15T01:34:51;19.10;;;14.50;;
23270;SDS011;11804;51.118;17.058;2023-04-15T01:37:19;20.17;;;13.90;;
23270;SDS011;11804;51.118;17.058;2023-04-15T01:39:47;18.20;;;14.07;;
23270;SDS011;11804;51.118;17.058;2023-04-15T01:42:14;16.97;;;14.27;;
23270;SDS011;11804;51.118;17.058;2023-04-15T01:44:42;18.67;;;13.97;;
23270;SDS011;11804;51.118;17.058;2023-04-15T01:47:10;17.03;;;13.70;;
23270;SDS011;11804;51.118;17.058;2023-04-15T01:49:37;17.70;;;14.03;;
23270;SDS011;11804;51.118;17.058;2023-04-15T01:52:05;24.43;;;13.93;;
23270;SDS011;11804;51.118;17.058;2023-04-15T01:54:33;16.60;;;14.03;;
23270;SDS011;11804;51.118;17.058;2023-04-15T01:57:01;17.13;;;13.57;;
23270;SDS011;11804;51.118;17.058;2023-04-15T01:59:30;18.53;;;14.47;;
23270;SDS011;11804;51.118;17.058;2023-04-15T02:01:58;18.27;;;13.97;;
23270;SDS011;11804;51.118;17.058;2023-04-15T02:04:27;19.33;;;13.90;;
23270;SDS011;11804;51.118;17.058;2023-04-15T02:06:54;19.13;;;14.13;;
23270;SDS011;11804;51.118;17.058;2023-04-15T02:09:23;18.93;;;13.83;;
23270;SDS011;11804;51.118;17.058;2023-04-15T02:11:51;19.67;;;14.00;;
23270;SDS011;11804;51.118;17.058;2023-04-15T02:14:19;20.67;;;14.10;;
23270;SDS011;11804;51.118;17.058;2023-04-15T02:16:47;19.13;;;14.17;;
23270;SDS011;11804;51.118;17.058;2023-04-15T02:19:14;16.33;;;13.27;;
23270;SDS011;11804;51.118;17.058;2023-04-15T02:21:42;20.00;;;14.43;;
23270;SDS011;11804;51.118;17.058;2023-04-15T02:24:10;17.73;;;14.17;;
23270;SDS011;11804;51.118;17.058;2023-04-15T02:26:37;22.00;;;15.60;;
23270;SDS011;11804;51.118;17.058;2023-04-15T02:29:11;19.63;;;15.10;;
23270;SDS011;11804;51.118;17.058;2023-04-15T02:31:40;19.67;;;14.63;;
23270;SDS011;11804;51.118;17.058;2023-04-15T02:34:08;19.40;;;16.07;;
23270;SDS011;11804;51.118;17.058;2023-04-15T02:36:37;19.10;;;14.83;;
23270;SDS011;11804;51.118;17.058;2023-04-15T02:39:05;19.17;;;15.47;;
23270;SDS011;11804;51.118;17.058;2023-04-15T02:41:36;18.70;;;15.17;;
23270;SDS011;11804;51.118;17.058;2023-04-15T02:44:04;19.83;;;15.80;;
23270;SDS011;11804;51.118;17.058;2023-04-15T02:46:33;21.50;;;16.20;;
23270;SDS011;11804;51.118;17.058;2023-04-15T02:49:01;19.60;;;16.57;;
23270;SDS011;11804;51.118;17.058;2023-04-15T02:51:29;20.93;;;15.40;;
23270;SDS011;11804;51.118;17.058;2023-04-15T02:53:57;20.13;;;16.40;;
23270;SDS011;11804;51.118;17.058;2023-04-15T02:56:24;20.17;;;16.27;;
23270;SDS011;11804;51.118;17.058;2023-04-15T02:58:52;20.13;;;15.67;;
23270;SDS011;11804;51.118;17.058;2023-04-15T03:04:43;22.43;;;16.80;;
23270;SDS011;11804;51.118;17.058;2023-04-15T03:07:10;21.23;;;16.77;;
23270;SDS011;11804;51.118;17.058;2023-04-15T03:09:38;20.73;;;16.97;;
23270;SDS011;11804;51.118;17.058;2023-04-15T03:12:06;22.60;;;16.93;;
23270;SDS011;11804;51.118;17.058;2023-04-15T03:14:34;21.57;;;17.10;;
23270;SDS011;11804;51.118;17.058;2023-04-15T03:17:01;21.90;;;16.23;;
23270;SDS011;11804;51.118;17.058;2023-04-15T03:19:29;22.77;;;17.60;;
23270;SDS011;11804;51.118;17.058;2023-04-15T03:21:57;22.83;;;18.27;;
23270;SDS011;11804;51.118;17.058;2023-04-15T03:24:24;23.13;;;17.10;;
23270;SDS011;11804;51.118;17.058;2023-04-15T03:26:55;21.93;;;18.07;;
23270;SDS011;11804;51.118;17.058;2023-04-15T03:29:24;22.73;;;17.83;;
23270;SDS011;11804;51.118;17.058;2023-04-15T03:31:52;24.30;;;17.13;;
23270;SDS011;11804;51.118;17.058;2023-04-15T03:34:19;20.97;;;17.00;;
23270;SDS011;11804;51.118;17.058;2023-04-15T03:36:47;23.53;;;17.80;;
23270;SDS011;11804;51.118;17.058;2023-04-15T03:39:15;22.17;;;17.43;;
23270;SDS011;11804;51.118;17.058;2023-04-15T03:41:43;22.10;;;16.60;;
23270;SDS011;11804;51.118;17.058;2023-04-15T03:44:11;24.83;;;18.00;;
23270;SDS011;11804;51.118;17.058;2023-04-15T03:46:38;23.57;;;17.47;;
23270;SDS011;11804;51.118;17.058;2023-04-15T03:49:06;24.53;;;17.70;;
23270;SDS011;11804;51.118;17.058;2023-04-15T03:51:34;22.37;;;17.57;;
23270;SDS011;11804;51.118;17.058;2023-04-15T03:54:01;24.00;;;17.17;;
23270;SDS011;11804;51.118;17.058;2023-04-15T03:56:29;22.37;;;17.07;;
23270;SDS011;11804;51.118;17.058;2023-04-15T03:58:57;20.50;;;16.53;;
23270;SDS011;11804;51.118;17.058;2023-04-15T04:01:24;21.67;;;17.10;;
23270;SDS011;11804;51.118;17.058;2023-04-15T04:03:52;22.03;;;16.97;;
23270;SDS011;11804;51.118;17.058;2023-04-15T04:06:20;22.23;;;16.50;;
23270;SDS011;11804;51.118;17.058;2023-04-15T04:08:48;24.17;;;16.07;;
23270;SDS011;11804;51.118;17.058;2023-04-15T04:11:16;25.43;;;17.13;;
23270;SDS011;11804;51.118;17.058;2023-04-15T04:13:43;23.87;;;17.17;;
23270;SDS011;11804;51.118;17.058;2023-04-15T04:16:11;23.03;;;18.20;;
23270;SDS011;11804;51.118;17.058;2023-04-15T04:18:39;23.20;;;17.73;;
23270;SDS011;11804;51.118;17.058;2023-04-15T04:21:06;25.97;;;17.60;;
23270;SDS011;11804;51.118;17.058;2023-04-15T04:23:34;23.40;;;17.50;;
23270;SDS011;11804;51.118;17.058;2023-04-15T04:26:01;23.80;;;17.47;;
23270;SDS011;11804;51.118;17.058;2023-04-15T04:28:31;21.57;;;16.47;;
23270;SDS011;11804;51.118;17.058;2023-04-15T04:31:01;23.57;;;17.47;;
23270;SDS011;11804;51.118;17.058;2023-04-15T04:33:29;24.10;;;17.03;;
23270;SDS011;11804;51.118;17.058;2023-04-15T04:35:56;24.03;;;17.07;;
23270;SDS011;11804;51.118;17.058;2023-04-15T04:38:24;19.63;;;14.90;;
23270;SDS011;11804;51.118;17.058;2023-04-15T04:40:51;16.33;;;12.53;;
23270;SDS011;11804;51.118;17.058;2023-04-15T04:43:19;16.20;;;12.57;;
23270;SDS011;11804;51.118;17.058;2023-04-15T04:45:47;17.83;;;11.27;;
23270;SDS011;11804;51.118;17.058;2023-04-15T04:48:14;17.97;;;12.20;;
23270;SDS011;11804;51.118;17.058;2023-04-15T04:50:43;20.00;;;13.47;;
23270;SDS011;11804;51.118;17.058;2023-04-15T04:53:11;15.43;;;11.83;;
23270;SDS011;11804;51.118;17.058;2023-04-15T04:55:39;16.00;;;11.47;;
23270;SDS011;11804;51.118;17.058;2023-04-15T04:58:07;14.67;;;11.27;;
23270;SDS011;11804;51.118;17.058;2023-04-15T05:00:34;13.50;;;10.93;;
23270;SDS011;11804;51.118;17.058;2023-04-15T05:03:03;12.37;;;9.70;;
23270;SDS011;11804;51.118;17.058;2023-04-15T05:05:30;12.37;;;9.23;;
23270;SDS011;11804;51.118;17.058;2023-04-15T05:08:00;10.07;;;8.33;;
23270;SDS011;11804;51.118;17.058;2023-04-15T05:10:28;13.80;;;9.07;;
23270;SDS011;11804;51.118;17.058;2023-04-15T05:12:56;9.80;;;7.90;;
23270;SDS011;11804;51.118;17.058;2023-04-15T05:15:23;11.07;;;6.93;;
23270;SDS011;11804;51.118;17.058;2023-04-15T05:17:51;9.63;;;7.87;;
23270;SDS011;11804;51.118;17.058;2023-04-15T05:20:18;9.53;;;7.70;;
23270;SDS011;11804;51.118;17.058;2023-04-15T05:22:47;10.40;;;8.57;;
23270;SDS011;11804;51.118;17.058;2023-04-15T05:25:15;9.77;;;7.83;;
23270;SDS011;11804;51.118;17.058;2023-04-15T05:27:43;10.33;;;8.20;;
23270;SDS011;11804;51.118;17.058;2023-04-15T05:30:11;10.10;;;8.17;;
23270;SDS011;11804;51.118;17.058;2023-04-15T05:32:39;11.27;;;8.60;;
23270;SDS011;11804;51.118;17.058;2023-04-15T05:35:06;11.13;;;8.40;;
23270;SDS011;11804;51.118;17.058;2023-04-15T05:37:34;8.73;;;7.40;;
23270;SDS011;11804;51.118;17.058;2023-04-15T05:40:03;10.47;;;7.70;;
23270;SDS011;11804;51.118;17.058;2023-04-15T05:42:31;8.73;;;6.60;;
23270;SDS011;11804;51.118;17.058;2023-04-15T05:44:59;7.20;;;5.97;;
23270;SDS011;11804;51.118;17.058;2023-04-15T05:47:28;6.23;;;5.63;;
23270;SDS011;11804;51.118;17.058;2023-04-15T05:49:56;5.97;;;5.27;;
23270;SDS011;11804;51.118;17.058;2023-04-15T05:52:23;4.53;;;3.70;;
23270;SDS011;11804;51.118;17.058;2023-04-15T05:54:52;3.80;;;2.50;;
23270;SDS011;11804;51.118;17.058;2023-04-15T05:57:21;2.30;;;2.10;;
23270;SDS011;11804;51.118;17.058;2023-04-15T05:59:48;2.40;;;2.20;;
23270;SDS011;11804;51.118;17.058;2023-04-15T06:02:20;4.13;;;2.30;;
23270;SDS011;11804;51.118;17.058;2023-04-15T06:04:47;3.63;;;2.30;;
23270;SDS011;11804;51.118;17.058;2023-04-15T06:07:15;3.67;;;2.07;;
23270;SDS011;11804;51.118;17.058;2023-04-15T06:09:42;2.07;;;1.83;;
23270;SDS011;11804;51.118;17.058;2023-04-15T06:12:10;3.90;;;2.10;;
23270;SDS011;11804;51.118;17.058;2023-04-15T06:14:37;2.33;;;2.13;;
23270;SDS011;11804;51.118;17.058;2023-04-15T06:17:05;3.20;;;2.00;;
23270;SDS011;11804;51.118;17.058;2023-04-15T06:19:33;2.00;;;1.73;;
23270;SDS011;11804;51.118;17.058;2023-04-15T06:22:02;1.83;;;1.30;;
23270;SDS011;11804;51.118;17.058;2023-04-15T06:24:35;2.10;;;1.70;;
23270;SDS011;11804;51.118;17.058;2023-04-15T06:27:03;4.30;;;2.07;;
23270;SDS011;11804;51.118;17.058;2023-04-15T06:29:30;3.20;;;1.63;;
23270;SDS011;11804;51.118;17.058;2023-04-15T06:31:58;5.83;;;1.87;;
23270;SDS011;11804;51.118;17.058;2023-04-15T06:34:25;4.00;;;1.57;;
23270;SDS011;11804;51.118;17.058;2023-04-15T06:36:53;2.53;;;1.70;;
23270;SDS011;11804;51.118;17.058;2023-04-15T06:39:21;1.97;;;1.47;;
23270;SDS011;11804;51.118;17.058;2023-04-15T06:41:49;1.83;;;1.37;;
23270;SDS011;11804;51.118;17.058;2023-04-15T06:44:17;2.00;;;1.17;;
23270;SDS011;11804;51.118;17.058;2023-04-15T06:46:45;1.90;;;1.30;;
23270;SDS011;11804;51.118;17.058;2023-04-15T06:49:12;1.43;;;1.23;;
23270;SDS011;11804;51.118;17.058;2023-04-15T06:51:41;2.00;;;1.47;;
23270;SDS011;11804;51.118;17.058;2023-04-15T06:54:08;5.80;;;1.47;;
23270;SDS011;11804;51.118;17.058;2023-04-15T06:56:36;1.10;;;1.00;;
23270;SDS011;11804;51.118;17.058;2023-04-15T06:59:03;3.53;;;1.10;;
23270;SDS011;11804;51.118;17.058;2023-04-15T07:01:31;4.07;;;1.30;;
23270;SDS011;11804;51.118;17.058;2023-04-15T07:03:58;6.73;;;1.50;;
23270;SDS011;11804;51.118;17.058;2023-04-15T07:06:26;3.47;;;1.37;;
23270;SDS011;11804;51.118;17.058;2023-04-15T07:08:54;2.93;;;1.30;;
23270;SDS011;11804;51.118;17.058;2023-04-15T07:11:22;2.87;;;1.20;;
23270;SDS011;11804;51.118;17.058;2023-04-15T07:13:51;4.23;;;1.10;;
23270;SDS011;11804;51.118;17.058;2023-04-15T07:16:18;6.03;;;1.40;;
23270;SDS011;11804;51.118;17.058;2023-04-15T07:18:46;4.13;;;1.47;;
23270;SDS011;11804;51.118;17.058;2023-04-15T07:21:14;3.53;;;1.33;;
23270;SDS011;11804;51.118;17.058;2023-04-15T07:23:42;3.70;;;1.20;;
23270;SDS011;11804;51.118;17.058;2023-04-15T07:26:09;5.53;;;1.37;;
23270;SDS011;11804;51.118;17.058;2023-04-15T07:28:37;2.50;;;1.40;;
23270;SDS011;11804;51.118;17.058;2023-04-15T07:31:05;4.13;;;1.20;;
23270;SDS011;11804;51.118;17.058;2023-04-15T07:33:32;3.23;;;1.00;;
23270;SDS011;11804;51.118;17.058;2023-04-15T07:36:00;3.37;;;1.60;;
23270;SDS011;11804;51.118;17.058;2023-04-15T07:38:27;2.20;;;1.13;;
23270;SDS011;11804;51.118;17.058;2023-04-15T07:40:55;3.30;;;1.70;;
23270;SDS011;11804;51.118;17.058;2023-04-15T07:43:23;5.07;;;1.63;;
23270;SDS011;11804;51.118;17.058;2023-04-15T07:45:50;3.73;;;1.60;;
23270;SDS011;11804;51.118;17.058;2023-04-15T07:48:18;4.93;;;1.57;;
23270;SDS011;11804;51.118;17.058;2023-04-15T07:50:46;2.27;;;1.30;;
23270;SDS011;11804;51.118;17.058;2023-04-15T07:53:13;1.97;;;1.20;;
23270;SDS011;11804;51.118;17.058;2023-04-15T07:55:41;2.47;;;1.60;;
23270;SDS011;11804;51.118;17.058;2023-04-15T07:58:09;7.03;;;1.63;;
23270;SDS011;11804;51.118;17.058;2023-04-15T08:00:36;3.77;;;1.60;;
23270;SDS011;11804;51.118;17.058;2023-04-15T08:03:04;2.10;;;1.00;;
23270;SDS011;11804;51.118;17.058;2023-04-15T08:05:32;1.47;;;1.03;;
23270;SDS011;11804;51.118;17.058;2023-04-15T08:08:00;3.00;;;1.20;;
23270;SDS011;11804;51.118;17.058;2023-04-15T08:10:28;2.47;;;1.07;;
23270;SDS011;11804;51.118;17.058;2023-04-15T08:12:56;2.10;;;1.60;;
23270;SDS011;11804;51.118;17.058;2023-04-15T08:15:24;2.00;;;1.10;;
23270;SDS011;11804;51.118;17.058;2023-04-15T08:17:53;2.80;;;1.27;;
23270;SDS011;11804;51.118;17.058;2023-04-15T08:20:20;2.20;;;1.20;;
23270;SDS011;11804;51.118;17.058;2023-04-15T08:22:48;3.57;;;1.03;;
23270;SDS011;11804;51.118;17.058;2023-04-15T08:25:17;4.00;;;1.10;;
23270;SDS011;11804;51.118;17.058;2023-04-15T08:27:45;3.17;;;1.20;;
23270;SDS011;11804;51.118;17.058;2023-04-15T08:30:13;4.07;;;1.60;;
23270;SDS011;11804;51.118;17.058;2023-04-15T08:32:41;5.40;;;1.70;;
23270;SDS011;11804;51.118;17.058;2023-04-15T08:35:11;3.08;;;1.15;;
23270;SDS011;11804;51.118;17.058;2023-04-15T08:37:39;3.20;;;1.25;;
23270;SDS011;11804;51.118;17.058;2023-04-15T08:40:08;2.58;;;1.20;;
23270;SDS011;11804;51.118;17.058;2023-04-15T08:42:36;6.22;;;1.67;;
23270;SDS011;11804;51.118;17.058;2023-04-15T08:45:07;3.05;;;1.40;;
23270;SDS011;11804;51.118;17.058;2023-04-15T08:47:39;3.75;;;1.12;;
23270;SDS011;11804;51.118;17.058;2023-04-15T08:50:08;2.98;;;2.08;;
23270;SDS011;11804;51.118;17.058;2023-04-15T08:52:37;6.50;;;1.30;;
23270;SDS011;11804;51.118;17.058;2023-04-15T08:55:05;6.45;;;1.50;;
23270;SDS011;11804;51.118;17.058;2023-04-15T08:57:36;1.50;;;0.90;;
23270;SDS011;11804;51.118;17.058;2023-04-15T09:00:05;1.82;;;1.52;;
23270;SDS011;11804;51.118;17.058;2023-04-15T09:02:34;2.33;;;1.10;;
23270;SDS011;11804;51.118;17.058;2023-04-15T09:05:01;1.22;;;0.60;;
23270;SDS011;11804;51.118;17.058;2023-04-15T09:07:32;2.98;;;1.40;;
23270;SDS011;11804;51.118;17.058;2023-04-15T09:10:02;1.82;;;0.60;;
23270;SDS011;11804;51.118;17.058;2023-04-15T09:12:33;1.47;;;0.93;;
23270;SDS011;11804;51.118;17.058;2023-04-15T09:15:02;1.45;;;0.70;;
23270;SDS011;11804;51.118;17.058;2023-04-15T09:17:31;2.05;;;0.70;;
23270;SDS011;11804;51.118;17.058;2023-04-15T09:20:11;0.68;;;0.68;;
23270;SDS011;11804;51.118;17.058;2023-04-15T09:22:40;1.32;;;0.42;;
23270;SDS011;11804;51.118;17.058;2023-04-15T09:27:57;3.92;;;1.80;;
23270;SDS011;11804;51.118;17.058;2023-04-15T09:30:24;0.85;;;0.72;;
23270;SDS011;11804;51.118;17.058;2023-04-15T09:35:27;0.80;;;0.70;;
23270;SDS011;11804;51.118;17.058;2023-04-15T09:38:05;0.60;;;0.60;;
23270;SDS011;11804;51.118;17.058;2023-04-15T09:40:40;1.62;;;1.00;;
23270;SDS011;11804;51.118;17.058;2023-04-15T09:43:08;0.95;;;0.68;;
23270;SDS011;11804;51.118;17.058;2023-04-15T09:45:40;1.12;;;0.80;;
23270;SDS011;11804;51.118;17.058;2023-04-15T09:48:22;4.55;;;1.20;;
23270;SDS011;11804;51.118;17.058;2023-04-15T09:50:59;5.87;;;0.85;;
23270;SDS011;11804;51.118;17.058;2023-04-15T09:53:27;1.27;;;0.70;;
23270;SDS011;11804;51.118;17.058;2023-04-15T09:55:56;2.08;;;0.98;;
23270;SDS011;11804;51.118;17.058;2023-04-15T09:58:27;1.20;;;0.70;;
23270;SDS011;11804;51.118;17.058;2023-04-15T10:00:57;0.70;;;0.60;;
23270;SDS011;11804;51.118;17.058;2023-04-15T10:03:27;1.07;;;0.70;;
23270;SDS011;11804;51.118;17.058;2023-04-15T10:05:57;6.72;;;0.70;;
23270;SDS011;11804;51.118;17.058;2023-04-15T10:08:27;1.42;;;0.62;;
23270;SDS011;11804;51.118;17.058;2023-04-15T10:10:57;2.12;;;0.40;;
23270;SDS011;11804;51.118;17.058;2023-04-15T10:13:28;1.70;;;0.50;;
23270;SDS011;11804;51.118;17.058;2023-04-15T10:16:10;0.80;;;0.60;;
23270;SDS011;11804;51.118;17.058;2023-04-15T10:18:43;1.50;;;0.80;;
23270;SDS011;11804;51.118;17.058;2023-04-15T10:21:12;2.77;;;0.65;;
23270;SDS011;11804;51.118;17.058;2023-04-15T10:23:42;5.53;;;1.30;;
23270;SDS011;11804;51.118;17.058;2023-04-15T10:26:12;0.30;;;0.30;;
23270;SDS011;11804;51.118;17.058;2023-04-15T10:28:42;1.12;;;0.70;;
23270;SDS011;11804;51.118;17.058;2023-04-15T10:31:13;0.60;;;0.60;;
23270;SDS011;11804;51.118;17.058;2023-04-15T10:33:43;0.70;;;0.70;;
23270;SDS011;11804;51.118;17.058;2023-04-15T10:36:13;0.80;;;0.80;;
23270;SDS011;11804;51.118;17.058;2023-04-15T10:38:44;1.80;;;0.60;;
23270;SDS011;11804;51.118;17.058;2023-04-15T10:41:26;2.83;;;0.50;;
23270;SDS011;11804;51.118;17.058;2023-04-15T10:44:18;3.12;;;0.50;;
23270;SDS011;11804;51.118;17.058;2023-04-15T10:46:46;2.45;;;0.50;;
23270;SDS011;11804;51.118;17.058;2023-04-15T10:49:16;6.37;;;1.40;;
23270;SDS011;11804;51.118;17.058;2023-04-15T10:51:46;6.22;;;2.33;;
23270;SDS011;11804;51.118;17.058;2023-04-15T10:54:29;2.45;;;0.88;;
23270;SDS011;11804;51.118;17.058;2023-04-15T11:02:42;3.93;;;0.80;;
23270;SDS011;11804;51.118;17.058;2023-04-15T11:05:14;0.30;;;0.30;;
23270;SDS011;11804;51.118;17.058;2023-04-15T11:12:56;0.60;;;0.50;;
23270;SDS011;11804;51.118;17.058;2023-04-15T11:20:46;1.32;;;0.72;;
23270;SDS011;11804;51.118;17.058;2023-04-15T11:23:26;4.63;;;1.07;;
23270;SDS011;11804;51.118;17.058;2023-04-15T11:25:45;1.12;;;0.50;;
23270;SDS011;11804;51.118;17.058;2023-04-15T11:28:13;2.80;;;0.80;;
23270;SDS011;11804;51.118;17.058;2023-04-15T11:30:41;1.60;;;0.88;;
23270;SDS011;11804;51.118;17.058;2023-04-15T11:33:10;0.45;;;0.42;;
23270;SDS011;11804;51.118;17.058;2023-04-15T11:35:39;1.15;;;0.50;;
23270;SDS011;11804;51.118;17.058;2023-04-15T11:38:09;5.85;;;0.68;;
23270;SDS011;11804;51.118;17.058;2023-04-15T11:40:38;2.90;;;0.80;;
23270;SDS011;11804;51.118;17.058;2023-04-15T11:43:07;0.70;;;0.60;;
23270;SDS011;11804;51.118;17.058;2023-04-15T11:45:47;3.50;;;0.68;;
23270;SDS011;11804;51.118;17.058;2023-04-15T11:48:17;1.27;;;0.88;;
23270;SDS011;11804;51.118;17.058;2023-04-15T11:50:51;2.27;;;0.53;;
23270;SDS011;11804;51.118;17.058;2023-04-15T11:53:19;3.58;;;1.07;;
23270;SDS011;11804;51.118;17.058;2023-04-15T11:55:48;3.70;;;1.50;;
23270;SDS011;11804;51.118;17.058;2023-04-15T12:00:49;3.65;;;1.95;;
23270;SDS011;11804;51.118;17.058;2023-04-15T12:03:21;1.27;;;1.10;;
23270;SDS011;11804;51.118;17.058;2023-04-15T12:06:05;2.02;;;1.20;;
23270;SDS011;11804;51.118;17.058;2023-04-15T12:08:48;3.35;;;2.00;;
23270;SDS011;11804;51.118;17.058;2023-04-15T12:11:36;3.83;;;0.70;;
23270;SDS011;11804;51.118;17.058;2023-04-15T12:14:32;1.10;;;0.90;;
23270;SDS011;11804;51.118;17.058;2023-04-15T12:16:58;5.90;;;1.17;;
23270;SDS011;11804;51.118;17.058;2023-04-15T12:19:33;2.80;;;1.07;;
23270;SDS011;11804;51.118;17.058;2023-04-15T12:22:10;2.35;;;1.10;;
23270;SDS011;11804;51.118;17.058;2023-04-15T12:24:40;2.72;;;0.90;;
23270;SDS011;11804;51.118;17.058;2023-04-15T12:27:11;2.42;;;0.82;;
23270;SDS011;11804;51.118;17.058;2023-04-15T12:29:40;1.07;;;0.77;;
23270;SDS011;11804;51.118;17.058;2023-04-15T12:32:09;1.95;;;0.80;;
23270;SDS011;11804;51.118;17.058;2023-04-15T12:34:39;2.17;;;1.42;;
23270;SDS011;11804;51.118;17.058;2023-04-15T12:37:09;1.55;;;1.42;;
23270;SDS011;11804;51.118;17.058;2023-04-15T12:39:39;2.05;;;1.00;;
23270;SDS011;11804;51.118;17.058;2023-04-15T12:42:09;2.22;;;1.10;;
23270;SDS011;11804;51.118;17.058;2023-04-15T12:44:37;0.80;;;0.60;;
23270;SDS011;11804;51.118;17.058;2023-04-15T12:47:06;0.82;;;0.70;;
23270;SDS011;11804;51.118;17.058;2023-04-15T12:49:34;1.65;;;0.80;;
23270;SDS011;11804;51.118;17.058;2023-04-15T12:52:02;2.42;;;1.00;;
23270;SDS011;11804;51.118;17.058;2023-04-15T12:54:31;1.12;;;0.80;;
23270;SDS011;11804;51.118;17.058;2023-04-15T12:57:01;0.75;;;0.50;;
23270;SDS011;11804;51.118;17.058;2023-04-15T12:59:29;2.75;;;0.90;;
23270;SDS011;11804;51.118;17.058;2023-04-15T13:01:56;1.85;;;0.70;;
23270;SDS011;11804;51.118;17.058;2023-04-15T13:04:25;5.37;;;0.98;;
23270;SDS011;11804;51.118;17.058;2023-04-15T13:06:55;2.30;;;0.70;;
23270;SDS011;11804;51.118;17.058;2023-04-15T13:09:22;0.68;;;0.60;;
23270;SDS011;11804;51.118;17.058;2023-04-15T13:11:50;2.52;;;0.90;;
23270;SDS011;11804;51.118;17.058;2023-04-15T13:14:19;2.90;;;0.73;;
23270;SDS011;11804;51.118;17.058;2023-04-15T13:16:46;1.67;;;1.50;;
23270;SDS011;11804;51.118;17.058;2023-04-15T13:19:14;1.75;;;0.80;;
23270;SDS011;11804;51.118;17.058;2023-04-15T13:21:41;0.78;;;0.78;;
23270;SDS011;11804;51.118;17.058;2023-04-15T13:24:09;3.92;;;3.50;;
23270;SDS011;11804;51.118;17.058;2023-04-15T13:26:36;5.05;;;3.10;;
23270;SDS011;11804;51.118;17.058;2023-04-15T13:29:04;3.12;;;2.08;;
23270;SDS011;11804;51.118;17.058;2023-04-15T13:31:32;3.00;;;1.30;;
23270;SDS011;11804;51.118;17.058;2023-04-15T13:33:59;2.77;;;1.10;;
23270;SDS011;11804;51.118;17.058;2023-04-15T13:36:29;2.80;;;1.35;;
23270;SDS011;11804;51.118;17.058;2023-04-15T13:38:56;2.60;;;1.00;;
23270;SDS011;11804;51.118;17.058;2023-04-15T13:41:24;1.55;;;0.80;;
23270;SDS011;11804;51.118;17.058;2023-04-15T13:43:53;3.55;;;0.90;;
23270;SDS011;11804;51.118;17.058;2023-04-15T13:46:23;2.50;;;0.90;;
23270;SDS011;11804;51.118;17.058;2023-04-15T13:48:51;1.30;;;0.80;;
23270;SDS011;11804;51.118;17.058;2023-04-15T13:51:18;2.22;;;0.93;;
23270;SDS011;11804;51.118;17.058;2023-04-15T13:53:46;2.55;;;1.30;;
23270;SDS011;11804;51.118;17.058;2023-04-15T13:56:14;5.10;;;1.22;;
23270;SDS011;11804;51.118;17.058;2023-04-15T13:58:43;2.50;;;1.00;;
23270;SDS011;11804;51.118;17.058;2023-04-15T14:01:11;0.80;;;0.60;;
23270;SDS011;11804;51.118;17.058;2023-04-15T14:03:44;9.85;;;0.90;;
23270;SDS011;11804;51.118;17.058;2023-04-15T14:06:11;5.35;;;1.20;;
23270;SDS011;11804;51.118;17.058;2023-04-15T14:08:40;8.30;;;5.60;;
23270;SDS011;11804;51.118;17.058;2023-04-15T14:11:08;7.95;;;4.67;;
23270;SDS011;11804;51.118;17.058;2023-04-15T14:13:36;2.85;;;1.82;;
23270;SDS011;11804;51.118;17.058;2023-04-15T14:16:03;2.95;;;1.47;;
23270;SDS011;11804;51.118;17.058;2023-04-15T14:18:32;3.75;;;1.55;;
23270;SDS011;11804;51.118;17.058;2023-04-15T14:20:59;2.58;;;1.00;;
23270;SDS011;11804;51.118;17.058;2023-04-15T14:23:27;1.55;;;0.98;;
23270;SDS011;11804;51.118;17.058;2023-04-15T14:25:54;3.00;;;1.10;;
23270;SDS011;11804;51.118;17.058;2023-04-15T14:28:23;1.47;;;1.05;;
23270;SDS011;11804;51.118;17.058;2023-04-15T14:30:52;1.57;;;1.10;;
23270;SDS011;11804;51.118;17.058;2023-04-15T14:33:21;2.27;;;1.30;;
23270;SDS011;11804;51.118;17.058;2023-04-15T14:35:49;2.65;;;1.20;;
23270;SDS011;11804;51.118;17.058;2023-04-15T14:38:22;2.83;;;1.10;;
23270;SDS011;11804;51.118;17.058;2023-04-15T14:40:47;1.27;;;1.07;;
23270;SDS011;11804;51.118;17.058;2023-04-15T14:43:16;4.22;;;1.30;;
23270;SDS011;11804;51.118;17.058;2023-04-15T14:45:44;1.42;;;0.98;;
23270;SDS011;11804;51.118;17.058;2023-04-15T14:48:11;2.00;;;0.93;;
23270;SDS011;11804;51.118;17.058;2023-04-15T14:50:39;1.93;;;1.07;;
23270;SDS011;11804;51.118;17.058;2023-04-15T14:53:06;4.00;;;1.80;;
23270;SDS011;11804;51.118;17.058;2023-04-15T14:55:34;8.03;;;4.60;;
23270;SDS011;11804;51.118;17.058;2023-04-15T14:58:02;2.95;;;1.92;;
23270;SDS011;11804;51.118;17.058;2023-04-15T15:00:29;1.70;;;1.25;;
23270;SDS011;11804;51.118;17.058;2023-04-15T15:02:59;1.25;;;1.15;;